Norwegian Dawn — C6FT7 — position and weather

sailwx.info

Track history (hours):
 
Tides and Currents Weather Stations Pressure Air Temp Water Temp Dewpoint Dewpoint Depression Visibility Wind Speed Wind Dir Waves Ship Positions

Norwegian Dawn

Operator: Norwegian Cruise Line

Last reported at 2019-Feb-23 10:14 UTC. Time now 2019-Feb-24 00:17 UTC.
Position N 18°16' W 064°55'.

Type: Ship. MMSI: 311307000.

Date/timePositionNaut miles runAvg speedWind from/ knotsBaromVisibWave heightAir tempDewpointWater temp
2019-Feb-23 10:14N 18°16' W 064°55'2 9.5
2019-Feb-23 09:59N 18°14' W 064°54'4 9.1
2019-Feb-23 09:30N 18°10' W 064°52'5 9.2
2019-Feb-23 08:56N 18°08' W 064°47'60 8.7
2019-Feb-23 02:03N 17°59' W 063°44'0 8.5
2019-Feb-23 02:00N 17°59' W 063°44'5 8.6
2019-Feb-23 01:24N 17°57' W 063°39'4 8.7
2019-Feb-23 00:57N 17°56' W 063°35'6 8.7
2019-Feb-23 00:14N 17°55' W 063°29'2 8.5
2019-Feb-22 23:59N 17°54' W 063°26'5 8.7
2019-Feb-22 23:28N 17°53' W 063°22'5 8.5
2019-Feb-22 22:55N 17°53' W 063°17'4 8.8
2019-Feb-22 22:29N 17°56' W 063°14'5 8.8
2019-Feb-22 21:56N 17°59' W 063°10'4 8.9
2019-Feb-22 21:30N 17°60' W 063°06'3 4.6
2019-Feb-22 20:46N 18°01' W 063°03'0 0.0
2019-Feb-22 20:16N 18°01' W 063°03'0 0.0
2019-Feb-22 19:52N 18°01' W 063°03'0 0.0
2019-Feb-22 19:22N 18°01' W 063°03'0 0.0
2019-Feb-22 18:52N 18°01' W 063°03'0 0.0
2019-Feb-22 18:07N 18°01' W 063°03'0 0.0
2019-Feb-22 17:52N 18°01' W 063°03'0 0.0
2019-Feb-22 17:22N 18°01' W 063°03'0 0.0
2019-Feb-22 16:55N 18°01' W 063°03'0 0.0
2019-Feb-22 16:19N 18°01' W 063°03'0 0.0
2019-Feb-22 15:52N 18°01' W 063°03'0 0.0
2019-Feb-22 15:25N 18°01' W 063°03'0 0.0
2019-Feb-22 14:55N 18°01' W 063°03'0 0.0
2019-Feb-22 14:28N 18°01' W 063°03'0 0.0
2019-Feb-22 13:58N 18°01' W 063°03'0 0.0
2019-Feb-22 13:28N 18°01' W 063°03'0 0.0
2019-Feb-22 12:55N 18°01' W 063°03'0 0.0
2019-Feb-22 12:25N 18°01' W 063°03'0 0.0
2019-Feb-22 11:58N 18°01' W 063°03'0 0.0
2019-Feb-22 11:25N 18°01' W 063°03'0 0.6
2019-Feb-22 10:46N 18°00' W 063°03'1 4.5
2019-Feb-22 10:28N 18°00' W 063°04'4 7.9
2019-Feb-22 10:00N 18°00' W 063°08'4 7.4
2019-Feb-22 09:30N 17°58' W 063°11'5 8.0
2019-Feb-22 08:54N 17°53' W 063°11'3 8.1
2019-Feb-22 08:28N 17°50' W 063°10'4 8.1
2019-Feb-22 08:00N 17°46' W 063°09'4 8.2
2019-Feb-22 07:29N 17°42' W 063°09'4 8.5
2019-Feb-22 06:58N 17°37' W 063°08'4 8.5
2019-Feb-22 06:30N 17°33' W 063°08'4 8.9
2019-Feb-22 06:00N 17°29' W 063°07'51401.4
2019-Feb-22 06:00N 17°24' W 063°06'1 2.3 100 / 271018.010.8 25.0 26.4
2019-Feb-22 05:30N 17°25' W 063°07'5 8.7
2019-Feb-22 04:59N 17°20' W 063°06'4 8.9
2019-Feb-22 04:29N 17°16' W 063°07'5 8.7
2019-Feb-22 03:55N 17°11' W 063°09'18 9.1
2019-Feb-22 02:00N 16°54' W 063°12'18 7.5 080 / 211020.010.8 26.0 28.4
2019-Feb-21 23:33N 17°02' W 062°54'1 9.2
2019-Feb-21 23:29N 17°02' W 062°54'13 8.3
2019-Feb-21 21:55N 17°12' W 062°46'2 0.1
2019-Feb-21 09:49N 17°11' W 062°44'18 7.5
2019-Feb-21 07:21N 16°53' W 062°49'21 5.2
2019-Feb-21 03:26N 16°40' W 062°32'919.7
2019-Feb-21 03:00N 16°36' W 062°24'69 3.3 110 / 241018.010.8 25.4 28.1
2019-Feb-20 06:00N 15°36' W 061°48'4920.8 080 / 461017.010.8 25.3 28.4
2019-Feb-20 03:38N 14°49' W 061°33'1422.8
2019-Feb-20 03:01N 14°36' W 061°27'3180.3
2019-Feb-20 03:00N 14°36' W 061°24'1422.2 060 / 321017.010.8 25.3 28.4
2019-Feb-20 02:21N 14°23' W 061°20'823.0
2019-Feb-20 02:01N 14°17' W 061°14'1223.1
2019-Feb-20 01:31N 14°14' W 061°03'1122.9
2019-Feb-20 01:01N 14°10' W 060°51'1223.0
2019-Feb-20 00:30N 14°02' W 060°42'5 0.3
2019-Feb-19 05:39N 14°06' W 060°41'215.4
2019-Feb-19 05:30N 14°07' W 060°43'815.4
2019-Feb-19 05:00N 14°10' W 060°50'815.2
2019-Feb-19 04:30N 14°12' W 060°58'815.2
2019-Feb-19 04:00N 14°14' W 061°05'815.1
2019-Feb-19 03:30N 14°18' W 061°12'815.8
2019-Feb-19 03:00N 14°24' W 061°18'816.0
2019-Feb-19 02:29N 14°30' W 061°23'816.2
2019-Feb-19 02:00N 14°36' W 061°29'816.5
2019-Feb-19 01:30N 14°42' W 061°34'24915.7
2019-Feb-18 09:37N 17°52' W 064°22'1015.4
2019-Feb-18 08:59N 17°58' W 064°30'2416.0
2019-Feb-18 07:28N 18°08' W 064°53'2415.9
2019-Feb-18 06:00N 18°24' W 065°12'44 1.8 100 / 121018.110.8 25.423.626.1
2019-Feb-17 06:00N 18°42' W 065°54'62 3.1 160 / 191016.110.8 25.425.226.1
2019-Feb-16 10:07N 18°16' W 064°55'211.8
2019-Feb-16 09:58N 18°15' W 064°55'510.5
2019-Feb-16 09:26N 18°10' W 064°52'512.5
2019-Feb-16 09:00N 18°08' W 064°47'4013.2
2019-Feb-16 06:00N 18°00' W 064°06'17 8.9 140 / 121015.110.8 25.424.026.1
2019-Feb-16 04:05N 17°59' W 063°48'211.1
2019-Feb-16 03:52N 17°58' W 063°46'411.0
2019-Feb-16 03:29N 17°57' W 063°41'610.9
2019-Feb-16 02:59N 17°54' W 063°37'611.1
2019-Feb-16 02:27N 17°52' W 063°31'511.4
2019-Feb-16 01:59N 17°50' W 063°26'611.5
2019-Feb-16 01:28N 17°47' W 063°20'711.9
2019-Feb-16 00:54N 17°44' W 063°14'811.8
2019-Feb-16 00:15N 17°39' W 063°08'414.1
2019-Feb-15 23:59N 17°35' W 063°07'713.9
2019-Feb-15 23:28N 17°28' W 063°05'815.5
2019-Feb-15 22:55N 17°21' W 063°01'715.4
2019-Feb-15 22:26N 17°15' W 062°55'914.4
2019-Feb-15 21:49N 17°15' W 062°46'2 0.2
2019-Feb-15 10:04N 17°14' W 062°44'2 8.4
2019-Feb-15 09:49N 17°11' W 062°44'15 8.9
2019-Feb-15 08:04N 16°57' W 062°50'1 8.6
2019-Feb-15 07:59N 16°56' W 062°50'2110.3
2019-Feb-15 06:00N 16°36' W 062°54'22 6.2 110 / 191015.110.8 25.421.527.1
2019-Feb-15 02:28N 16°43' W 062°32'107 5.2
2019-Feb-14 06:00N 16°24' W 060°42'   090 / 311017.010.8 25.8 27.1
Track history (hours):
 
Tides and Currents Weather Stations Pressure Air Temp Water Temp Dewpoint Dewpoint Depression Visibility Wind Speed Wind Dir Waves Ship Positions

Norwegian Dawn

Operator: Norwegian Cruise Line

Last reported at 2019-Feb-23 10:14 UTC. Time now 2019-Feb-24 00:17 UTC.
Position N 18°16' W 064°55'.

Type: Ship. MMSI: 311307000.

Date/timePositionNaut miles runAvg speedWind from/ knotsBaromVisibWave heightAir tempDewpointWater temp
2019-Feb-23 10:14N 18°16' W 064°55'2 9.5
2019-Feb-23 09:59N 18°14' W 064°54'4 9.1
2019-Feb-23 09:30N 18°10' W 064°52'5 9.2
2019-Feb-23 08:56N 18°08' W 064°47'60 8.7
2019-Feb-23 02:03N 17°59' W 063°44'0 8.5
2019-Feb-23 02:00N 17°59' W 063°44'5 8.6
2019-Feb-23 01:24N 17°57' W 063°39'4 8.7
2019-Feb-23 00:57N 17°56' W 063°35'6 8.7
2019-Feb-23 00:14N 17°55' W 063°29'2 8.5
2019-Feb-22 23:59N 17°54' W 063°26'5 8.7
2019-Feb-22 23:28N 17°53' W 063°22'5 8.5
2019-Feb-22 22:55N 17°53' W 063°17'4 8.8
2019-Feb-22 22:29N 17°56' W 063°14'5 8.8
2019-Feb-22 21:56N 17°59' W 063°10'4 8.9
2019-Feb-22 21:30N 17°60' W 063°06'3 4.6
2019-Feb-22 20:46N 18°01' W 063°03'0 0.0
2019-Feb-22 20:16N 18°01' W 063°03'0 0.0
2019-Feb-22 19:52N 18°01' W 063°03'0 0.0
2019-Feb-22 19:22N 18°01' W 063°03'0 0.0
2019-Feb-22 18:52N 18°01' W 063°03'0 0.0
2019-Feb-22 18:07N 18°01' W 063°03'0 0.0
2019-Feb-22 17:52N 18°01' W 063°03'0 0.0
2019-Feb-22 17:22N 18°01' W 063°03'0 0.0
2019-Feb-22 16:55N 18°01' W 063°03'0 0.0
2019-Feb-22 16:19N 18°01' W 063°03'0 0.0
2019-Feb-22 15:52N 18°01' W 063°03'0 0.0
2019-Feb-22 15:25N 18°01' W 063°03'0 0.0
2019-Feb-22 14:55N 18°01' W 063°03'0 0.0
2019-Feb-22 14:28N 18°01' W 063°03'0 0.0
2019-Feb-22 13:58N 18°01' W 063°03'0 0.0
2019-Feb-22 13:28N 18°01' W 063°03'0 0.0
2019-Feb-22 12:55N 18°01' W 063°03'0 0.0
2019-Feb-22 12:25N 18°01' W 063°03'0 0.0
2019-Feb-22 11:58N 18°01' W 063°03'0 0.0
2019-Feb-22 11:25N 18°01' W 063°03'0 0.6
2019-Feb-22 10:46N 18°00' W 063°03'1 4.5
2019-Feb-22 10:28N 18°00' W 063°04'4 7.9
2019-Feb-22 10:00N 18°00' W 063°08'4 7.4
2019-Feb-22 09:30N 17°58' W 063°11'5 8.0
2019-Feb-22 08:54N 17°53' W 063°11'3 8.1
2019-Feb-22 08:28N 17°50' W 063°10'4 8.1
2019-Feb-22 08:00N 17°46' W 063°09'4 8.2
2019-Feb-22 07:29N 17°42' W 063°09'4 8.5
2019-Feb-22 06:58N 17°37' W 063°08'4 8.5
2019-Feb-22 06:30N 17°33' W 063°08'4 8.9
2019-Feb-22 06:00N 17°29' W 063°07'51401.4
2019-Feb-22 06:00N 17°24' W 063°06'1 2.3 100 / 271018.010.8 25.0 26.4
2019-Feb-22 05:30N 17°25' W 063°07'5 8.7
2019-Feb-22 04:59N 17°20' W 063°06'4 8.9
2019-Feb-22 04:29N 17°16' W 063°07'5 8.7
2019-Feb-22 03:55N 17°11' W 063°09'18 9.1
2019-Feb-22 02:00N 16°54' W 063°12'18 7.5 080 / 211020.010.8 26.0 28.4
2019-Feb-21 23:33N 17°02' W 062°54'1 9.2
2019-Feb-21 23:29N 17°02' W 062°54'13 8.3
2019-Feb-21 21:55N 17°12' W 062°46'2 0.1
2019-Feb-21 09:49N 17°11' W 062°44'18 7.5
2019-Feb-21 07:21N 16°53' W 062°49'21 5.2
2019-Feb-21 03:26N 16°40' W 062°32'919.7
2019-Feb-21 03:00N 16°36' W 062°24'69 3.3 110 / 241018.010.8 25.4 28.1
2019-Feb-20 06:00N 15°36' W 061°48'4920.8 080 / 461017.010.8 25.3 28.4
2019-Feb-20 03:38N 14°49' W 061°33'1422.8
2019-Feb-20 03:01N 14°36' W 061°27'3180.3
2019-Feb-20 03:00N 14°36' W 061°24'1422.2 060 / 321017.010.8 25.3 28.4
2019-Feb-20 02:21N 14°23' W 061°20'823.0
2019-Feb-20 02:01N 14°17' W 061°14'1223.1
2019-Feb-20 01:31N 14°14' W 061°03'1122.9
2019-Feb-20 01:01N 14°10' W 060°51'1223.0
2019-Feb-20 00:30N 14°02' W 060°42'5 0.3
2019-Feb-19 05:39N 14°06' W 060°41'215.4
2019-Feb-19 05:30N 14°07' W 060°43'815.4
2019-Feb-19 05:00N 14°10' W 060°50'815.2
2019-Feb-19 04:30N 14°12' W 060°58'815.2
2019-Feb-19 04:00N 14°14' W 061°05'815.1
2019-Feb-19 03:30N 14°18' W 061°12'815.8
2019-Feb-19 03:00N 14°24' W 061°18'816.0
2019-Feb-19 02:29N 14°30' W 061°23'816.2
2019-Feb-19 02:00N 14°36' W 061°29'816.5
2019-Feb-19 01:30N 14°42' W 061°34'24915.7
2019-Feb-18 09:37N 17°52' W 064°22'1015.4
2019-Feb-18 08:59N 17°58' W 064°30'2416.0
2019-Feb-18 07:28N 18°08' W 064°53'2415.9
2019-Feb-18 06:00N 18°24' W 065°12'44 1.8 100 / 121018.110.8 25.423.626.1
2019-Feb-17 06:00N 18°42' W 065°54'62 3.1 160 / 191016.110.8 25.425.226.1
2019-Feb-16 10:07N 18°16' W 064°55'211.8
2019-Feb-16 09:58N 18°15' W 064°55'510.5
2019-Feb-16 09:26N 18°10' W 064°52'512.5
2019-Feb-16 09:00N 18°08' W 064°47'4013.2
2019-Feb-16 06:00N 18°00' W 064°06'17 8.9 140 / 121015.110.8 25.424.026.1
2019-Feb-16 04:05N 17°59' W 063°48'211.1
2019-Feb-16 03:52N 17°58' W 063°46'411.0
2019-Feb-16 03:29N 17°57' W 063°41'610.9
2019-Feb-16 02:59N 17°54' W 063°37'611.1
2019-Feb-16 02:27N 17°52' W 063°31'511.4
2019-Feb-16 01:59N 17°50' W 063°26'611.5
2019-Feb-16 01:28N 17°47' W 063°20'711.9
2019-Feb-16 00:54N 17°44' W 063°14'811.8
2019-Feb-16 00:15N 17°39' W 063°08'414.1
2019-Feb-15 23:59N 17°35' W 063°07'713.9
2019-Feb-15 23:28N 17°28' W 063°05'815.5
2019-Feb-15 22:55N 17°21' W 063°01'715.4
2019-Feb-15 22:26N 17°15' W 062°55'914.4
2019-Feb-15 21:49N 17°15' W 062°46'2 0.2
2019-Feb-15 10:04N 17°14' W 062°44'2 8.4
2019-Feb-15 09:49N 17°11' W 062°44'15 8.9
2019-Feb-15 08:04N 16°57' W 062°50'1 8.6
2019-Feb-15 07:59N 16°56' W 062°50'2110.3
2019-Feb-15 06:00N 16°36' W 062°54'22 6.2 110 / 191015.110.8 25.421.527.1
2019-Feb-15 02:28N 16°43' W 062°32'107 5.2
2019-Feb-14 06:00N 16°24' W 060°42'   090 / 311017.010.8 25.8 27.1

Dump ship's entire track history